Time;durP1;ratioP1;P1;durP2;ratioP2;P2;SDS_P1;SDS_P2;PMS_P1;PMS_P2;Temp;Humidity;BMP_temperature;BMP_pressure;BME280_temperature;BME280_humidity;BME280_pressure;Samples;Min_cycle;Max_cycle;Signal;HPM_P1;HPM_P2
2022/10/23 00:00:48;;;;;;;10.50;3.93;;;10.30;99.90;;;;;;5061558;28;20167;-59
2022/10/23 00:03:13;;;;;;;9.20;3.47;;;10.30;99.90;;;;;;5058728;28;20212;-59
2022/10/23 00:05:40;;;;;;;20.00;4.63;;;10.30;99.90;;;;;;5061405;28;20409;-59
2022/10/23 00:08:06;;;;;;;28.80;5.17;;;10.30;99.90;;;;;;5064699;28;20320;-58
2022/10/23 00:10:32;;;;;;;11.37;3.90;;;10.30;99.90;;;;;;5059336;28;20431;-58
2022/10/23 00:12:58;;;;;;;32.37;4.57;;;10.30;99.90;;;;;;5063306;28;20417;-58
2022/10/23 00:15:26;;;;;;;14.03;3.27;;;10.30;99.90;;;;;;5064320;28;21014;-58
2022/10/23 00:17:51;;;;;;;16.53;3.53;;;10.30;99.90;;;;;;5059391;28;20179;-60
2022/10/23 00:20:17;;;;;;;22.60;4.07;;;10.30;99.90;;;;;;5055256;28;20436;-58
2022/10/23 00:22:43;;;;;;;14.43;4.17;;;10.30;99.90;;;;;;5060594;28;20166;-59
2022/10/23 00:25:09;;;;;;;9.23;3.60;;;10.30;99.90;;;;;;5054966;28;20694;-59
2022/10/23 00:27:35;;;;;;;11.30;3.80;;;10.30;99.90;;;;;;5057179;28;20199;-59
2022/10/23 00:30:01;;;;;;;6.83;3.90;;;10.30;99.90;;;;;;5054554;28;20428;-60
2022/10/23 00:32:27;;;;;;;10.80;4.07;;;10.30;99.90;;;;;;5060915;28;20179;-60
2022/10/23 00:34:53;;;;;;;22.77;3.90;;;10.30;99.90;;;;;;5064824;28;20494;-60
2022/10/23 00:37:19;;;;;;;16.10;3.60;;;10.30;99.90;;;;;;5059392;28;20516;-60
2022/10/23 00:39:45;;;;;;;10.43;4.30;;;10.20;99.90;;;;;;5063108;28;20170;-61
2022/10/23 00:42:18;;;;;;;15.20;3.63;;;10.20;99.90;;;;;;5055365;28;20506;-58
2022/10/23 00:44:43;;;;;;;10.63;4.20;;;10.20;99.90;;;;;;5055194;28;20194;-60
2022/10/23 00:47:10;;;;;;;11.50;4.07;;;10.20;99.90;;;;;;5052383;28;21386;-60
2022/10/23 00:49:36;;;;;;;6.83;3.30;;;10.20;99.90;;;;;;5055491;28;20176;-60
2022/10/23 00:52:05;;;;;;;8.50;3.27;;;10.10;99.90;;;;;;5058744;28;20428;-60
2022/10/23 00:54:35;;;;;;;9.80;4.00;;;10.10;99.90;;;;;;5060215;28;20190;-61
2022/10/23 00:57:03;;;;;;;7.73;3.90;;;10.10;99.90;;;;;;5060356;28;20521;-60
2022/10/23 00:59:30;;;;;;;17.50;3.87;;;10.10;99.90;;;;;;5057746;28;20424;-60
2022/10/23 01:01:56;;;;;;;5.20;3.50;;;10.10;99.90;;;;;;5058093;28;20463;-59
2022/10/23 01:04:23;;;;;;;4.97;3.00;;;10.10;99.90;;;;;;5060898;28;20479;-60
2022/10/23 01:07:08;;;;;;;10.97;3.63;;;10.10;99.90;;;;;;5061191;28;20467;-60
2022/10/23 01:09:43;;;;;;;23.97;3.80;;;10.10;99.90;;;;;;5058386;28;20467;-60
2022/10/23 01:12:35;;;;;;;9.53;4.13;;;10.00;99.90;;;;;;5055930;28;20431;-61
2022/10/23 01:15:04;;;;;;;10.03;3.30;;;10.00;99.90;;;;;;5058610;28;20464;-60
2022/10/23 01:17:32;;;;;;;19.33;4.50;;;10.00;99.90;;;;;;5062077;28;20430;-60
2022/10/23 01:20:35;;;;;;;10.87;3.40;;;10.00;99.90;;;;;;5061085;28;20515;-60
2022/10/23 01:23:13;;;;;;;12.10;3.40;;;9.90;99.90;;;;;;5059819;28;20434;-61
2022/10/23 01:25:47;;;;;;;36.50;4.83;;;10.00;99.90;;;;;;5062483;28;20463;-60
2022/10/23 01:28:23;;;;;;;24.50;5.10;;;10.00;99.90;;;;;;5059676;28;20456;-60
2022/10/23 01:30:49;;;;;;;23.67;4.20;;;9.90;99.90;;;;;;5058616;28;20482;-60
2022/10/23 01:33:27;;;;;;;7.30;3.27;;;9.90;99.90;;;;;;5058016;28;20428;-60
2022/10/23 01:36:02;;;;;;;3.53;3.23;;;9.90;99.90;;;;;;5062688;28;20444;-60
2022/10/23 01:38:35;;;;;;;13.43;3.77;;;9.90;99.90;;;;;;5063605;28;20433;-60
2022/10/23 01:41:10;;;;;;;47.33;20.13;;;9.90;99.90;;;;;;5060248;28;20524;-60
2022/10/23 01:44:05;;;;;;;16.53;7.90;;;9.90;99.90;;;;;;5060708;28;20437;-59
2022/10/23 01:46:34;;;;;;;10.77;5.13;;;9.90;99.90;;;;;;5062272;28;20789;-61
2022/10/23 01:49:01;;;;;;;24.73;4.87;;;9.90;99.90;;;;;;5058848;28;20411;-61
2022/10/23 01:51:30;;;;;;;4.20;3.60;;;9.90;99.90;;;;;;5057764;28;20524;-60
2022/10/23 01:53:58;;;;;;;11.70;3.93;;;9.90;99.90;;;;;;5058593;28;20417;-61
2022/10/23 01:56:32;;;;;;;7.53;3.53;;;9.90;99.90;;;;;;5052858;28;20460;-61
2022/10/23 01:59:03;;;;;;;12.30;4.13;;;9.90;99.90;;;;;;5055853;28;20413;-61
2022/10/23 02:01:30;;;;;;;7.10;3.50;;;9.90;99.90;;;;;;5066231;28;20519;-60
2022/10/23 02:03:57;;;;;;;5.17;3.37;;;9.90;99.90;;;;;;5061518;28;20483;-61
2022/10/23 02:06:23;;;;;;;25.97;4.60;;;9.90;99.90;;;;;;5068874;28;20538;-63
2022/10/23 02:08:49;;;;;;;13.50;4.17;;;9.90;99.90;;;;;;5066148;28;20544;-62
2022/10/23 02:11:21;;;;;;;11.53;3.67;;;9.90;99.90;;;;;;5062496;28;20178;-64
2022/10/23 02:14:06;;;;;;;5.83;4.00;;;9.90;99.90;;;;;;5053738;28;20804;-62
2022/10/23 02:16:41;;;;;;;14.67;3.40;;;9.80;99.90;;;;;;5069235;28;20447;-62
2022/10/23 02:19:10;;;;;;;3.53;3.20;;;9.80;99.90;;;;;;5063757;28;20952;-62
2022/10/23 02:21:55;;;;;;;10.80;3.23;;;9.80;99.90;;;;;;5067061;28;20432;-62
2022/10/23 02:25:03;;;;;;;8.30;3.10;;;9.80;99.90;;;;;;5067874;28;20478;-62
2022/10/23 02:27:35;;;;;;;3.30;3.00;;;9.70;99.90;;;;;;5058721;28;20455;-62
2022/10/23 02:30:07;;;;;;;4.23;2.83;;;9.70;99.90;;;;;;5066849;28;20493;-62
2022/10/23 02:32:35;;;;;;;6.90;2.90;;;9.70;99.90;;;;;;5067010;28;21013;-62
2022/10/23 02:35:01;;;;;;;8.97;3.13;;;9.70;99.90;;;;;;5067316;28;20539;-62
2022/10/23 02:37:27;;;;;;;6.70;3.23;;;9.70;99.90;;;;;;5063061;28;20425;-62
2022/10/23 02:39:53;;;;;;;3.03;2.83;;;9.70;99.90;;;;;;5069564;28;20776;-61
2022/10/23 02:42:40;;;;;;;4.63;3.00;;;9.70;99.90;;;;;;5061990;28;20174;-62
2022/10/23 02:45:16;;;;;;;7.90;3.20;;;9.70;99.90;;;;;;5069340;28;20451;-62
2022/10/23 02:48:10;;;;;;;8.87;3.50;;;9.60;99.90;;;;;;5072465;28;20950;-62
2022/10/23 02:50:54;;;;;;;4.30;2.90;;;9.60;99.90;;;;;;5071976;28;20436;-62
2022/10/23 02:53:25;;;;;;;5.80;3.40;;;9.60;99.90;;;;;;5073530;28;20420;-63
2022/10/23 02:56:06;;;;;;;12.27;3.77;;;9.60;99.90;;;;;;5071118;28;20462;-62
2022/10/23 02:58:36;;;;;;;17.50;3.83;;;9.60;99.90;;;;;;5068194;28;20461;-62
2022/10/23 03:01:10;;;;;;;11.07;3.87;;;9.60;99.90;;;;;;5069418;28;20561;-63
2022/10/23 03:03:55;;;;;;;57.50;5.30;;;9.60;99.90;;;;;;5087211;28;20508;-62
2022/10/23 03:06:22;;;;;;;16.30;3.57;;;9.60;99.90;;;;;;5073132;28;20436;-62
2022/10/23 03:08:57;;;;;;;18.13;3.73;;;9.60;99.90;;;;;;5073442;28;20982;-62
2022/10/23 03:11:23;;;;;;;8.80;3.53;;;9.60;99.90;;;;;;5070516;28;20439;-62
2022/10/23 03:13:48;;;;;;;42.93;5.17;;;9.50;99.90;;;;;;5067332;28;20429;-62
2022/10/23 03:16:14;;;;;;;21.20;6.67;;;9.50;99.90;;;;;;5072629;28;20243;-62
2022/10/23 03:18:40;;;;;;;20.27;4.63;;;9.50;99.90;;;;;;5071191;28;20206;-62
2022/10/23 03:21:05;;;;;;;88.37;6.80;;;9.50;99.90;;;;;;5065783;28;20328;-62
2022/10/23 03:23:31;;;;;;;29.70;3.40;;;9.50;99.90;;;;;;5072478;28;20276;-62
2022/10/23 03:25:57;;;;;;;21.23;3.63;;;9.50;99.90;;;;;;5072975;28;20247;-63
2022/10/23 03:28:22;;;;;;;19.40;3.20;;;9.40;99.90;;;;;;5071253;28;20206;-62
2022/10/23 03:30:48;;;;;;;4.87;3.03;;;9.40;99.90;;;;;;5073852;28;20262;-62
2022/10/23 03:33:13;;;;;;;3.77;2.33;;;9.30;99.90;;;;;;5070595;28;20205;-62
2022/10/23 03:35:39;;;;;;;29.23;3.20;;;9.30;99.90;;;;;;5068523;28;20198;-62
2022/10/23 03:38:05;;;;;;;25.30;2.70;;;9.30;99.90;;;;;;5067757;28;20282;-62
2022/10/23 03:40:30;;;;;;;19.87;3.40;;;9.30;99.90;;;;;;5067472;28;20186;-62
2022/10/23 03:42:56;;;;;;;13.33;2.83;;;9.20;99.90;;;;;;5068171;28;20740;-62
2022/10/23 03:45:22;;;;;;;9.13;2.80;;;9.10;99.90;;;;;;5071843;28;20191;-62
2022/10/23 03:47:49;;;;;;;17.07;2.70;;;9.10;99.90;;;;;;5084062;22;20227;-58
2022/10/23 03:50:15;;;;;;;15.63;2.90;;;9.00;99.90;;;;;;5040716;28;20163;-59
2022/10/23 03:52:40;;;;;;;12.30;2.60;;;8.90;99.90;;;;;;5048728;28;20803;-58
2022/10/23 03:55:07;;;;;;;27.73;3.40;;;8.90;99.90;;;;;;5047420;28;20504;-60
2022/10/23 03:57:32;;;;;;;25.90;3.10;;;8.90;99.90;;;;;;5045628;28;20215;-58
2022/10/23 03:59:58;;;;;;;7.90;2.60;;;8.90;99.90;;;;;;5054920;28;20409;-57
2022/10/23 04:02:24;;;;;;;4.13;3.03;;;8.80;99.90;;;;;;5044656;28;20178;-59
2022/10/23 04:04:49;;;;;;;3.87;2.23;;;8.80;99.90;;;;;;5050320;28;20190;-56
2022/10/23 04:07:15;;;;;;;3.63;2.27;;;8.80;99.90;;;;;;5046009;28;20525;-58
2022/10/23 04:09:40;;;;;;;14.63;2.77;;;8.80;99.90;;;;;;5050469;28;20197;-58
2022/10/23 04:12:06;;;;;;;8.30;2.53;;;8.90;99.90;;;;;;5051072;28;20175;-56
2022/10/23 04:14:32;;;;;;;4.77;2.37;;;8.90;99.90;;;;;;5052496;28;20193;-64
2022/10/23 04:16:58;;;;;;;12.67;2.63;;;8.90;99.90;;;;;;5045041;28;20205;-57
2022/10/23 04:19:24;;;;;;;5.23;2.50;;;8.90;99.90;;;;;;5061972;28;20224;-56
2022/10/23 04:21:49;;;;;;;4.20;2.33;;;8.90;99.90;;;;;;5046203;28;20433;-58
2022/10/23 04:24:15;;;;;;;5.47;2.20;;;8.90;99.90;;;;;;5046194;28;20172;-58
2022/10/23 04:26:41;;;;;;;16.40;2.77;;;8.90;99.90;;;;;;5048436;28;20673;-59
2022/10/23 04:29:06;;;;;;;11.87;2.80;;;8.90;99.90;;;;;;5049655;28;20644;-56
2022/10/23 04:31:32;;;;;;;18.53;2.80;;;8.90;99.90;;;;;;5045545;28;20218;-57
2022/10/23 04:33:58;;;;;;;24.53;2.73;;;8.90;99.90;;;;;;5049985;28;20179;-61
2022/10/23 04:36:23;;;;;;;18.70;2.80;;;8.90;99.90;;;;;;5048703;28;20701;-58
2022/10/23 04:38:49;;;;;;;13.10;2.90;;;8.90;99.90;;;;;;5047467;28;20249;-60
2022/10/23 04:41:15;;;;;;;70.70;3.97;;;8.80;99.90;;;;;;5043851;28;20179;-58
2022/10/23 04:43:40;;;;;;;14.93;2.80;;;8.80;99.90;;;;;;5046569;28;20623;-58
2022/10/23 04:46:06;;;;;;;10.03;2.40;;;8.80;99.90;;;;;;5046791;28;20370;-57
2022/10/23 04:48:32;;;;;;;21.20;4.20;;;8.80;99.90;;;;;;5047378;28;20171;-58
2022/10/23 04:51:03;;;;;;;6.90;2.87;;;8.80;99.90;;;;;;5048822;28;20241;-59
2022/10/23 04:53:29;;;;;;;7.60;2.80;;;8.80;99.90;;;;;;5047115;28;20183;-58
2022/10/23 04:55:57;;;;;;;4.40;2.97;;;8.80;99.90;;;;;;5048001;28;20429;-57
2022/10/23 04:58:23;;;;;;;99.13;8.17;;;8.80;99.90;;;;;;5048524;28;20485;-59
2022/10/23 05:00:50;;;;;;;43.83;4.40;;;8.90;99.90;;;;;;5040834;28;20479;-62
2022/10/23 05:03:17;;;;;;;13.03;3.70;;;8.80;99.90;;;;;;5045795;28;20433;-56
2022/10/23 05:05:44;;;;;;;15.13;3.77;;;8.80;99.90;;;;;;5043946;28;20923;-59
2022/10/23 05:08:10;;;;;;;52.73;6.40;;;8.80;99.90;;;;;;5053133;28;20450;-58
2022/10/23 05:10:36;;;;;;;31.80;3.67;;;8.90;99.90;;;;;;5054020;28;20452;-58
2022/10/23 05:13:02;;;;;;;14.00;3.10;;;8.90;99.90;;;;;;5043869;28;20429;-56
2022/10/23 05:15:28;;;;;;;13.43;4.60;;;8.90;99.90;;;;;;5046607;28;20421;-58
2022/10/23 05:18:03;;;;;;;10.10;5.27;;;8.80;99.90;;;;;;5037708;28;20464;-57
2022/10/23 05:20:32;;;;;;;27.07;4.40;;;8.90;99.90;;;;;;5046704;28;20596;-59
2022/10/23 05:23:01;;;;;;;26.50;4.40;;;8.80;99.90;;;;;;5045049;28;20577;-58
2022/10/23 05:25:29;;;;;;;13.83;3.43;;;8.90;99.90;;;;;;5047858;28;20475;-58
2022/10/23 05:27:54;;;;;;;31.67;3.47;;;8.90;99.90;;;;;;5051792;28;20453;-58
2022/10/23 05:30:20;;;;;;;13.07;2.47;;;8.90;99.90;;;;;;5051783;28;20413;-59
2022/10/23 05:32:46;;;;;;;18.53;2.50;;;8.90;99.90;;;;;;5049394;28;20300;-57
2022/10/23 05:35:21;;;;;;;21.10;2.63;;;8.90;99.90;;;;;;5047639;28;20282;-56
2022/10/23 05:37:49;;;;;;;18.10;2.67;;;8.90;99.90;;;;;;5046209;28;20229;-56
2022/10/23 05:40:16;;;;;;;23.47;2.70;;;8.90;99.90;;;;;;5043816;28;20433;-57
2022/10/23 05:42:42;;;;;;;18.77;2.43;;;8.90;99.90;;;;;;5056509;28;20566;-60
2022/10/23 05:45:08;;;;;;;35.07;3.30;;;8.90;99.90;;;;;;5042267;28;21106;-57
2022/10/23 05:47:34;;;;;;;20.87;2.90;;;8.90;99.90;;;;;;5047435;28;20218;-58
2022/10/23 05:49:59;;;;;;;11.17;2.87;;;8.90;99.90;;;;;;5045325;28;20518;-58
2022/10/23 05:52:25;;;;;;;16.80;3.20;;;8.90;99.90;;;;;;5043859;28;20222;-59
2022/10/23 05:54:51;;;;;;;20.57;3.10;;;8.80;99.90;;;;;;5040150;28;20183;-58
2022/10/23 05:57:17;;;;;;;27.93;2.83;;;8.90;99.90;;;;;;5042502;28;20515;-62
2022/10/23 05:59:43;;;;;;;38.87;3.40;;;8.80;99.90;;;;;;5040220;28;20266;-58
2022/10/23 06:02:08;;;;;;;8.13;2.47;;;8.80;99.90;;;;;;5038209;28;20575;-58
2022/10/23 06:04:34;;;;;;;44.57;3.97;;;8.70;99.90;;;;;;5046669;28;20175;-56
2022/10/23 06:07:01;;;;;;;12.60;3.27;;;8.80;99.90;;;;;;5046657;28;20305;-58
2022/10/23 06:09:26;;;;;;;11.63;3.30;;;8.70;99.90;;;;;;5047158;28;20503;-57
2022/10/23 06:11:52;;;;;;;13.70;3.30;;;8.70;99.90;;;;;;5045692;28;20433;-57
2022/10/23 06:14:18;;;;;;;17.43;3.37;;;8.70;99.90;;;;;;5048724;28;20186;-58
2022/10/23 06:16:44;;;;;;;32.50;2.87;;;8.80;99.90;;;;;;5049023;28;20215;-57
2022/10/23 06:19:12;;;;;;;9.00;2.60;;;8.80;99.90;;;;;;5053321;28;20171;-59
2022/10/23 06:21:39;;;;;;;84.33;4.90;;;8.80;99.90;;;;;;5044069;28;20244;-57
2022/10/23 06:24:06;;;;;;;20.70;3.67;;;8.80;99.90;;;;;;5042998;28;20428;-57
2022/10/23 06:26:32;;;;;;;21.30;4.17;;;8.80;99.90;;;;;;5042497;28;20536;-59
2022/10/23 06:28:58;;;;;;;16.33;4.20;;;8.80;99.90;;;;;;5034288;28;20513;-58
2022/10/23 06:31:27;;;;;;;41.30;4.67;;;8.70;99.90;;;;;;5044948;28;20452;-58
2022/10/23 06:33:54;;;;;;;28.90;4.47;;;8.80;99.90;;;;;;5047499;28;20827;-57
2022/10/23 06:36:20;;;;;;;14.13;4.87;;;8.80;99.90;;;;;;5042478;28;20460;-60
2022/10/23 06:38:45;;;;;;;21.47;6.30;;;8.80;99.90;;;;;;5040692;28;20505;-58
2022/10/23 06:41:17;;;;;;;8.20;3.37;;;8.80;99.90;;;;;;5046961;28;21116;-57
2022/10/23 06:43:46;;;;;;;3.33;2.23;;;8.80;99.90;;;;;;5040396;28;20237;-58
2022/10/23 06:46:11;;;;;;;5.27;2.40;;;8.80;99.90;;;;;;5044573;28;20436;-58
2022/10/23 06:48:37;;;;;;;9.10;2.10;;;8.80;99.90;;;;;;5042621;28;20445;-58
2022/10/23 06:51:06;;;;;;;9.03;2.20;;;8.80;99.90;;;;;;5043202;28;20187;-56
2022/10/23 06:53:32;;;;;;;32.80;2.93;;;8.80;99.90;;;;;;5042945;28;20275;-57
2022/10/23 06:56:03;;;;;;;23.67;2.57;;;8.80;99.90;;;;;;5045999;28;20517;-57
2022/10/23 06:58:29;;;;;;;3.20;2.50;;;8.70;99.90;;;;;;5040815;28;21065;-58
2022/10/23 07:00:55;;;;;;;32.37;3.90;;;8.70;99.90;;;;;;5044591;28;20437;-57
2022/10/23 07:03:20;;;;;;;2.33;2.20;;;8.80;99.90;;;;;;5045012;28;20430;-57
2022/10/23 07:05:46;;;;;;;12.67;3.27;;;8.80;99.90;;;;;;5046655;28;20429;-57
2022/10/23 07:08:13;;;;;;;13.30;3.17;;;8.80;99.90;;;;;;5037200;28;20246;-57
2022/10/23 07:10:41;;;;;;;8.90;2.80;;;8.80;99.90;;;;;;5043466;28;20178;-58
2022/10/23 07:13:08;;;;;;;15.30;3.80;;;8.80;99.90;;;;;;5041328;28;20440;-58
2022/10/23 07:15:34;;;;;;;10.93;3.10;;;8.80;99.90;;;;;;5044470;28;20495;-59
2022/10/23 07:18:00;;;;;;;5.20;3.20;;;8.80;99.90;;;;;;5046052;28;20471;-58
2022/10/23 07:20:26;;;;;;;4.77;2.60;;;8.90;99.90;;;;;;5047311;28;21002;-57
2022/10/23 07:22:53;;;;;;;17.53;2.80;;;8.90;99.90;;;;;;5041935;28;20171;-57
2022/10/23 07:25:20;;;;;;;3.93;2.47;;;8.90;99.90;;;;;;5044332;28;20504;-58
2022/10/23 07:27:46;;;;;;;4.53;2.50;;;8.90;99.90;;;;;;5039361;28;20461;-57
2022/10/23 07:30:13;;;;;;;14.33;2.67;;;8.90;99.90;;;;;;5041200;28;20426;-56
2022/10/23 07:32:38;;;;;;;2.27;2.13;;;8.90;99.90;;;;;;5036970;28;20437;-58
2022/10/23 07:35:05;;;;;;;9.10;2.40;;;9.00;99.90;;;;;;5043596;28;20554;-58
2022/10/23 07:37:31;;;;;;;2.50;2.30;;;9.00;99.90;;;;;;5048894;28;20210;-65
2022/10/23 07:39:56;;;;;;;7.70;2.70;;;9.10;99.90;;;;;;5044068;28;20490;-57
2022/10/23 07:42:22;;;;;;;23.37;4.07;;;9.10;99.90;;;;;;5046919;28;20373;-57
2022/10/23 07:44:48;;;;;;;2.90;2.63;;;9.10;99.90;;;;;;5037469;28;20320;-58
2022/10/23 07:47:13;;;;;;;7.43;3.00;;;9.20;99.90;;;;;;5046707;28;20693;-60
2022/10/23 07:49:39;;;;;;;22.57;3.93;;;9.20;99.90;;;;;;5047139;28;20186;-57
2022/10/23 07:52:05;;;;;;;5.00;3.70;;;9.30;99.90;;;;;;5044498;28;20179;-60
2022/10/23 07:54:31;;;;;;;7.17;4.70;;;9.40;99.90;;;;;;5043094;28;20202;-57
2022/10/23 07:56:58;;;;;;;8.67;3.97;;;9.40;99.90;;;;;;5043086;28;21104;-57
2022/10/23 07:59:24;;;;;;;7.60;5.50;;;9.50;99.90;;;;;;5044810;28;20626;-58
2022/10/23 08:01:51;;;;;;;13.53;6.43;;;9.50;99.90;;;;;;5044788;28;20444;-58
2022/10/23 08:04:18;;;;;;;10.03;6.80;;;9.50;99.90;;;;;;5046534;28;20948;-57
2022/10/23 08:06:44;;;;;;;8.30;5.83;;;9.50;99.90;;;;;;5045208;28;20461;-58
2022/10/23 08:09:09;;;;;;;8.67;6.10;;;9.50;99.90;;;;;;5034990;28;20979;-57
2022/10/23 08:11:35;;;;;;;8.57;5.60;;;9.50;99.90;;;;;;5044298;28;20183;-56
2022/10/23 08:14:03;;;;;;;9.57;6.27;;;9.60;99.90;;;;;;5046402;28;20175;-55
2022/10/23 08:16:31;;;;;;;11.90;7.10;;;9.60;99.90;;;;;;5052071;28;20215;-56
2022/10/23 08:18:57;;;;;;;16.53;8.17;;;9.70;99.90;;;;;;5046139;28;20507;-56
2022/10/23 08:21:23;;;;;;;9.20;6.17;;;9.80;99.90;;;;;;5044901;28;20532;-58
2022/10/23 08:23:48;;;;;;;8.57;4.70;;;9.90;99.90;;;;;;5038923;28;20599;-55
2022/10/23 08:26:14;;;;;;;8.80;5.20;;;9.90;99.90;;;;;;5040077;28;20503;-56
2022/10/23 08:28:40;;;;;;;8.93;5.60;;;10.00;99.90;;;;;;5043522;28;20330;-57
2022/10/23 08:31:15;;;;;;;11.10;6.67;;;10.10;99.90;;;;;;5044121;28;20179;-57
2022/10/23 08:33:41;;;;;;;10.73;6.23;;;10.20;99.90;;;;;;5043743;28;20232;-55
2022/10/23 08:36:18;;;;;;;13.07;5.97;;;10.20;99.90;;;;;;5041425;28;21066;-56
2022/10/23 08:38:44;;;;;;;10.03;5.50;;;10.30;99.90;;;;;;5045304;28;20468;-56
2022/10/23 08:41:39;;;;;;;10.80;5.73;;;10.40;99.90;;;;;;5046223;28;20421;-56
2022/10/23 08:44:04;;;;;;;8.20;4.53;;;10.50;99.90;;;;;;5042100;28;20442;-57
2022/10/23 08:46:36;;;;;;;9.53;6.20;;;10.60;99.90;;;;;;5041376;28;20519;-55
2022/10/23 08:49:43;;;;;;;10.07;6.03;;;10.70;99.90;;;;;;5041798;28;20190;-55
2022/10/23 08:52:40;;;;;;;8.23;5.53;;;10.90;99.90;;;;;;5044673;28;20481;-55
2022/10/23 08:55:39;;;;;;;9.93;5.60;;;11.00;99.90;;;;;;5031476;28;21003;-56
2022/10/23 08:58:14;;;;;;;9.20;6.03;;;11.20;99.90;;;;;;5041471;28;20495;-53
2022/10/23 09:00:42;;;;;;;8.70;5.60;;;11.30;99.90;;;;;;5041642;28;20441;-58
2022/10/23 09:03:10;;;;;;;9.03;5.60;;;11.40;99.90;;;;;;5040264;28;20425;-55
2022/10/23 09:06:02;;;;;;;11.20;5.60;;;11.50;99.90;;;;;;5042802;28;20521;-56
2022/10/23 09:08:49;;;;;;;11.50;4.70;;;11.70;99.90;;;;;;5042222;28;20730;-55
2022/10/23 09:11:28;;;;;;;8.43;4.43;;;12.00;99.90;;;;;;5044637;28;20917;-56
2022/10/23 09:14:13;;;;;;;6.17;4.30;;;12.10;99.90;;;;;;5037451;28;20569;-53
2022/10/23 09:16:56;;;;;;;6.10;3.87;;;12.30;99.90;;;;;;5039923;28;20476;-56
2022/10/23 09:19:26;;;;;;;4.50;3.23;;;12.50;99.90;;;;;;5044529;28;20441;-56
2022/10/23 09:21:53;;;;;;;6.57;3.47;;;12.60;99.90;;;;;;5041809;28;20502;-56
2022/10/23 09:24:22;;;;;;;3.93;2.80;;;12.70;99.90;;;;;;5035546;28;20525;-55
2022/10/23 09:26:50;;;;;;;10.13;2.47;;;12.80;99.90;;;;;;5041963;28;20453;-54
2022/10/23 09:29:22;;;;;;;2.93;2.40;;;12.90;99.90;;;;;;5032796;28;20596;-55
2022/10/23 09:31:57;;;;;;;3.17;2.40;;;13.00;99.90;;;;;;5038583;28;21090;-55
2022/10/23 09:34:26;;;;;;;2.27;2.07;;;13.10;99.90;;;;;;5033486;28;21770;-55
2022/10/23 09:37:16;;;;;;;4.93;2.53;;;13.20;99.90;;;;;;5044453;28;20552;-56
2022/10/23 09:39:42;;;;;;;4.27;2.80;;;13.30;99.90;;;;;;5044140;28;20839;-55
2022/10/23 09:42:34;;;;;;;3.60;2.83;;;13.40;99.90;;;;;;5038054;28;20874;-56
2022/10/23 09:45:00;;;;;;;2.50;2.30;;;13.50;99.90;;;;;;5037738;28;20277;-57
2022/10/23 09:47:27;;;;;;;5.67;2.50;;;13.60;99.90;;;;;;5084054;22;20529;-60
2022/10/23 09:49:55;;;;;;;3.17;2.30;;;13.70;99.90;;;;;;5103739;28;20430;-61
2022/10/23 09:52:37;;;;;;;3.80;2.33;;;13.70;99.90;;;;;;5099023;28;20424;-61
2022/10/23 09:55:23;;;;;;;2.17;1.97;;;13.80;99.90;;;;;;5102026;28;20427;-60
2022/10/23 09:57:50;;;;;;;3.33;2.30;;;13.90;99.90;;;;;;5088017;28;20456;-61
2022/10/23 10:00:21;;;;;;;2.53;2.33;;;14.00;99.90;;;;;;5084033;28;20796;-60
2022/10/23 10:03:01;;;;;;;2.60;2.00;;;14.20;99.90;;;;;;5075933;28;21079;-60
2022/10/23 10:05:35;;;;;;;4.17;2.10;;;14.30;99.90;;;;;;5081112;28;20510;-62
2022/10/23 10:08:19;;;;;;;5.23;2.10;;;14.50;99.90;;;;;;5063472;28;20475;-59
2022/10/23 10:11:03;;;;;;;6.73;2.13;;;14.60;99.90;;;;;;5083471;28;20794;-59
2022/10/23 10:13:32;;;;;;;3.10;2.17;;;14.80;99.90;;;;;;5080896;28;20432;-61
2022/10/23 10:16:04;;;;;;;2.07;1.83;;;14.90;99.90;;;;;;5082342;28;20428;-62
2022/10/23 10:18:44;;;;;;;7.60;2.00;;;15.00;99.90;;;;;;5079760;28;20464;-60
2022/10/23 10:21:23;;;;;;;2.30;2.10;;;15.10;99.90;;;;;;5081194;28;20440;-61
2022/10/23 10:24:06;;;;;;;2.87;1.70;;;15.10;99.90;;;;;;5081019;28;20439;-60
2022/10/23 10:26:57;;;;;;;2.40;1.67;;;15.20;99.90;;;;;;5077257;28;20538;-61
2022/10/23 10:29:48;;;;;;;2.00;1.80;;;15.30;99.90;;;;;;5081108;28;20437;-59
2022/10/23 10:32:34;;;;;;;2.73;2.20;;;15.40;99.90;;;;;;5085047;28;20485;-60
2022/10/23 10:35:09;;;;;;;3.20;1.63;;;15.50;99.90;;;;;;5084941;28;20427;-60
2022/10/23 10:38:15;;;;;;;3.00;2.30;;;15.60;99.90;;;;;;5083308;28;20475;-60
2022/10/23 10:40:46;;;;;;;2.27;1.90;;;15.70;99.90;;;;;;5079531;28;20432;-60
2022/10/23 10:43:24;;;;;;;2.27;2.07;;;15.80;99.90;;;;;;5079582;28;20443;-60
2022/10/23 10:46:07;;;;;;;7.00;1.37;;;15.80;99.90;;;;;;5076486;28;20865;-61
2022/10/23 10:48:57;;;;;;;1.63;1.53;;;15.90;99.90;;;;;;5079688;28;20471;-62
2022/10/23 10:51:50;;;;;;;2.77;1.40;;;15.90;99.90;;;;;;5080201;28;20538;-62
2022/10/23 10:54:39;;;;;;;6.13;1.70;;;15.90;99.90;;;;;;5078185;28;20584;-62
2022/10/23 10:57:28;;;;;;;2.20;1.67;;;16.00;99.90;;;;;;5081399;28;20471;-62
2022/10/23 10:59:56;;;;;;;1.50;1.40;;;16.30;99.90;;;;;;5075320;28;20432;-62
2022/10/23 11:02:29;;;;;;;2.43;2.23;;;16.50;99.90;;;;;;5078516;28;20442;-61
2022/10/23 11:05:06;;;;;;;1.93;1.83;;;16.60;99.90;;;;;;5079896;28;20428;-61
2022/10/23 11:07:37;;;;;;;6.93;1.80;;;16.80;99.90;;;;;;5079797;28;20455;-61
2022/10/23 11:10:13;;;;;;;2.80;1.50;;;16.90;99.90;;;;;;5086074;28;20428;-61
2022/10/23 11:12:41;;;;;;;1.63;1.33;;;17.10;99.90;;;;;;5081704;28;20432;-61
2022/10/23 11:15:16;;;;;;;2.00;1.40;;;17.40;99.90;;;;;;5081515;28;21010;-61
2022/10/23 11:17:51;;;;;;;1.60;1.50;;;17.60;99.90;;;;;;5071734;28;20466;-60
2022/10/23 11:20:38;;;;;;;1.37;1.10;;;17.80;99.90;;;;;;5083328;28;20428;-61
2022/10/23 11:23:25;;;;;;;2.53;1.30;;;17.90;99.90;;;;;;5081107;28;20432;-62
2022/10/23 11:26:19;;;;;;;1.50;1.40;;;18.00;99.90;;;;;;5083026;28;20424;-61
2022/10/23 11:29:22;;;;;;;3.77;1.50;;;18.20;99.90;;;;;;5061635;28;20893;-61
2022/10/23 11:32:20;;;;;;;2.50;1.10;;;18.60;99.90;;;;;;5066145;28;20431;-61
2022/10/23 11:35:00;;;;;;;1.20;1.10;;;19.40;95.00;;;;;;5075290;28;20441;-61
2022/10/23 11:37:26;;;;;;;1.50;1.40;;;20.10;91.50;;;;;;5082132;28;20472;-61
2022/10/23 11:40:12;;;;;;;2.90;1.40;;;20.70;83.80;;;;;;5082978;28;20435;-61
2022/10/23 11:42:37;;;;;;;1.17;1.07;;;21.30;76.10;;;;;;5076929;28;20683;-62
2022/10/23 11:45:24;;;;;;;1.33;1.23;;;21.90;67.90;;;;;;5078102;28;20497;-62
2022/10/23 11:47:59;;;;;;;1.47;1.10;;;22.50;64.60;;;;;;5084092;28;20224;-62
2022/10/23 11:50:28;;;;;;;1.07;1.00;;;23.10;61.60;;;;;;5082294;28;20443;-62
2022/10/23 11:52:54;;;;;;;1.43;1.30;;;23.60;60.00;;;;;;5080732;28;20427;-62
2022/10/23 11:55:23;;;;;;;3.33;1.33;;;23.90;58.70;;;;;;5076773;28;20451;-62
2022/10/23 11:58:04;;;;;;;1.57;1.20;;;24.20;57.90;;;;;;5080065;28;20201;-62
2022/10/23 12:00:31;;;;;;;1.85;1.45;;;24.60;56.60;;;;;;5079240;28;20189;-62
2022/10/23 12:02:58;;;;;;;1.33;1.20;;;24.70;56.00;;;;;;5074906;28;20185;-62
2022/10/23 12:05:29;;;;;;;2.78;1.42;;;24.50;55.70;;;;;;5081178;28;20245;-62
2022/10/23 12:07:57;;;;;;;2.60;1.37;;;23.90;55.90;;;;;;5080342;28;20204;-62
2022/10/23 12:10:44;;;;;;;5.50;1.60;;;23.10;56.50;;;;;;5078962;28;20185;-62
2022/10/23 12:13:30;;;;;;;9.07;3.00;;;22.40;58.60;;;;;;5078112;28;20250;-62
2022/10/23 12:15:56;;;;;;;6.17;4.27;;;21.50;61.60;;;;;;5083431;28;20687;-61
2022/10/23 12:18:21;;;;;;;3.27;2.83;;;21.00;65.30;;;;;;5081188;28;20482;-61
2022/10/23 12:20:55;;;;;;;3.57;3.07;;;20.50;72.30;;;;;;5085437;28;20183;-61
2022/10/23 12:23:33;;;;;;;6.20;2.40;;;20.10;79.10;;;;;;5077870;28;20177;-61
2022/10/23 12:26:18;;;;;;;2.20;2.00;;;19.70;76.40;;;;;;5082261;28;20457;-61
2022/10/23 12:29:07;;;;;;;4.33;1.97;;;19.50;79.00;;;;;;5080644;28;20881;-61
2022/10/23 12:31:51;;;;;;;2.73;1.53;;;19.30;85.50;;;;;;5079549;28;20937;-61
2022/10/23 12:34:43;;;;;;;2.20;1.43;;;19.10;93.40;;;;;;5079429;28;20450;-61
2022/10/23 12:37:35;;;;;;;4.80;1.40;;;19.10;95.50;;;;;;5081159;28;20537;-62
2022/10/23 12:40:01;;;;;;;1.50;1.40;;;19.00;96.90;;;;;;5076792;28;20428;-61
2022/10/23 12:42:28;;;;;;;3.00;1.70;;;19.00;97.20;;;;;;5077397;28;20431;-61
2022/10/23 12:45:18;;;;;;;4.33;1.87;;;18.90;97.60;;;;;;5077889;28;20174;-61
2022/10/23 12:47:46;;;;;;;2.27;1.80;;;18.90;98.90;;;;;;5070402;28;20529;-60
2022/10/23 12:50:31;;;;;;;3.10;1.80;;;18.80;98.10;;;;;;5077886;28;20516;-61
2022/10/23 12:53:00;;;;;;;5.00;1.53;;;18.80;97.80;;;;;;5077884;28;20455;-60
2022/10/23 12:55:28;;;;;;;1.53;1.30;;;18.80;98.60;;;;;;5078914;28;21364;-61
2022/10/23 12:57:53;;;;;;;1.57;1.47;;;18.70;99.30;;;;;;5062205;28;20454;-61
2022/10/23 13:00:22;;;;;;;2.13;1.90;;;18.60;99.90;;;;;;5080119;28;20522;-61
2022/10/23 13:03:03;;;;;;;2.90;1.70;;;18.60;99.90;;;;;;5082852;28;20194;-61
2022/10/23 13:05:30;;;;;;;2.60;1.80;;;18.50;99.90;;;;;;5078959;28;20443;-60
2022/10/23 13:07:58;;;;;;;1.57;1.47;;;18.50;99.90;;;;;;5073562;28;20463;-61
2022/10/23 13:10:25;;;;;;;3.20;1.83;;;18.40;99.90;;;;;;5076620;28;20443;-62